createdAt,value
2019-03-25T00:01:15.937Z,89.70
2019-03-25T00:03:42.783Z,89.70
2019-03-25T00:06:09.633Z,89.40
2019-03-25T00:08:36.453Z,89.20
2019-03-25T00:11:03.285Z,89.10
2019-03-25T00:13:30.068Z,89.20
2019-03-25T00:15:56.916Z,89.40
2019-03-25T00:18:23.764Z,89.50
2019-03-25T00:20:50.551Z,89.70
2019-03-25T00:23:17.396Z,89.50
2019-03-25T00:25:44.185Z,89.80
2019-03-25T00:28:13.625Z,89.70
2019-03-25T00:30:39.646Z,89.70
2019-03-25T00:33:06.482Z,89.70
2019-03-25T00:35:33.325Z,89.90
2019-03-25T00:38:00.116Z,89.60
2019-03-25T00:40:27.174Z,89.60
2019-03-25T00:42:53.957Z,89.40
2019-03-25T00:45:20.789Z,89.50
2019-03-25T00:47:47.633Z,89.60
2019-03-25T00:50:14.412Z,89.60
2019-03-25T00:52:41.252Z,89.50
2019-03-25T00:55:08.040Z,89.40
2019-03-25T00:57:34.893Z,89.30
2019-03-25T01:00:01.668Z,89.70
2019-03-25T01:02:28.469Z,89.60
2019-03-25T01:04:55.317Z,89.40
2019-03-25T01:07:22.935Z,89.40
2019-03-25T01:09:49.907Z,89.30
2019-03-25T01:12:16.813Z,89.10
2019-03-25T01:14:43.752Z,88.90
2019-03-25T01:17:10.753Z,89.10
2019-03-25T01:19:37.785Z,89.10
2019-03-25T01:22:04.839Z,89.10
2019-03-25T01:24:31.734Z,88.90
2019-03-25T01:26:58.582Z,89.30
2019-03-25T01:29:25.566Z,89.60
2019-03-25T01:31:52.441Z,89.60
2019-03-25T01:34:19.345Z,89.60
2019-03-25T01:36:46.287Z,89.60
2019-03-25T01:39:13.198Z,89.90
2019-03-25T01:41:40.156Z,90.10
2019-03-25T01:44:07.111Z,89.90
2019-03-25T01:46:34.060Z,89.90
2019-03-25T01:49:00.896Z,89.90
2019-03-25T01:51:27.729Z,90.00
2019-03-25T01:53:54.517Z,90.00
2019-03-25T01:56:21.344Z,90.00
2019-03-25T01:58:48.197Z,90.20
2019-03-25T02:01:14.986Z,90.50
2019-03-25T02:03:41.773Z,90.50
2019-03-25T02:06:08.620Z,90.30
2019-03-25T02:08:35.481Z,90.20
2019-03-25T02:11:02.331Z,90.10
2019-03-25T02:13:29.116Z,90.20
2019-03-25T02:15:55.967Z,90.00
2019-03-25T02:18:22.765Z,90.20
2019-03-25T02:20:49.652Z,90.50
2019-03-25T02:23:16.442Z,90.30
2019-03-25T02:25:43.282Z,90.40
2019-03-25T02:28:10.128Z,90.40
2019-03-25T02:30:56.702Z,90.60
2019-03-25T02:33:23.550Z,90.90
2019-03-25T02:35:50.330Z,90.90
2019-03-25T02:38:17.122Z,91.10
2019-03-25T02:40:43.958Z,90.90
2019-03-25T02:43:10.736Z,90.70
2019-03-25T02:45:37.580Z,90.60
2019-03-25T02:48:04.357Z,90.80
2019-03-25T02:50:31.197Z,90.80
2019-03-25T02:52:58.003Z,90.90
2019-03-25T02:55:40.109Z,91.00
2019-03-25T02:57:53.465Z,91.30
2019-03-25T03:00:32.661Z,91.00
2019-03-25T03:02:59.482Z,91.00
2019-03-25T03:05:26.318Z,90.90
2019-03-25T03:07:53.089Z,91.10
2019-03-25T03:10:19.864Z,91.20
2019-03-25T03:12:46.713Z,91.20
2019-03-25T03:15:13.505Z,91.40
2019-03-25T03:17:40.338Z,91.20
2019-03-25T03:20:07.130Z,91.30
2019-03-25T03:22:33.984Z,91.40
2019-03-25T03:25:00.766Z,91.40
2019-03-25T03:27:29.939Z,91.80
2019-03-25T03:29:56.188Z,92.10
2019-03-25T03:32:23.499Z,92.30
2019-03-25T03:34:50.789Z,92.20
2019-03-25T03:37:17.764Z,92.10
2019-03-25T03:39:44.618Z,92.20
2019-03-25T03:42:11.399Z,92.30
2019-03-25T03:44:38.249Z,92.10
2019-03-25T03:47:05.124Z,91.90
2019-03-25T03:49:31.958Z,91.90
2019-03-25T03:51:58.793Z,91.60
2019-03-25T03:54:26.130Z,91.10
2019-03-25T03:57:12.711Z,91.00
2019-03-25T03:59:39.494Z,91.20
2019-03-25T04:02:06.338Z,91.60
2019-03-25T04:04:33.166Z,91.70
2019-03-25T04:06:59.990Z,91.60
2019-03-25T04:09:26.840Z,91.60
2019-03-25T04:11:53.865Z,91.50
2019-03-25T04:14:20.734Z,91.90
2019-03-25T04:16:48.602Z,92.20
2019-03-25T04:19:15.447Z,92.30
2019-03-25T04:21:42.216Z,92.40
2019-03-25T04:24:09.061Z,92.30
2019-03-25T04:26:35.901Z,92.50
2019-03-25T04:29:02.735Z,92.40
2019-03-25T04:31:29.604Z,92.50
2019-03-25T04:33:56.464Z,92.50
2019-03-25T04:36:23.240Z,92.60
2019-03-25T04:38:50.086Z,92.50
2019-03-25T04:41:16.859Z,92.50
2019-03-25T04:43:43.704Z,92.80
2019-03-25T04:46:10.494Z,93.00
2019-03-25T04:48:37.323Z,92.80
2019-03-25T04:51:05.560Z,93.10
2019-03-25T04:53:32.400Z,93.00
2019-03-25T04:55:59.181Z,93.10
2019-03-25T04:58:26.033Z,92.80
2019-03-25T05:00:52.868Z,93.00
2019-03-25T05:03:19.642Z,93.00
2019-03-25T05:05:46.488Z,93.10
2019-03-25T05:08:13.278Z,93.10
2019-03-25T05:10:40.109Z,93.00
2019-03-25T05:13:06.897Z,93.10
2019-03-25T05:15:33.749Z,93.20
2019-03-25T05:18:00.558Z,93.50
2019-03-25T05:20:27.383Z,93.40
2019-03-25T05:22:54.208Z,93.10
2019-03-25T05:25:20.994Z,93.40
2019-03-25T05:27:47.823Z,93.60
2019-03-25T05:30:14.661Z,93.40
2019-03-25T05:32:41.444Z,93.20
2019-03-25T05:35:08.290Z,93.40
2019-03-25T05:37:35.286Z,93.50
2019-03-25T05:40:02.108Z,93.60
2019-03-25T05:42:28.910Z,93.50
2019-03-25T05:44:55.744Z,93.70
2019-03-25T05:47:22.529Z,93.80
2019-03-25T05:49:49.448Z,94.10
2019-03-25T05:52:16.262Z,94.50
2019-03-25T05:54:43.145Z,94.60
2019-03-25T05:57:09.977Z,94.60
2019-03-25T05:59:36.821Z,94.90
2019-03-25T06:02:03.610Z,95.20
2019-03-25T06:04:30.385Z,95.20
2019-03-25T06:06:57.212Z,95.00
2019-03-25T06:09:24.009Z,94.90
2019-03-25T06:11:50.840Z,94.80
2019-03-25T06:14:17.622Z,94.70
2019-03-25T06:16:44.477Z,94.90
2019-03-25T06:19:11.309Z,94.60
2019-03-25T06:21:38.092Z,94.30
2019-03-25T06:24:04.932Z,93.90
2019-03-25T06:26:31.713Z,93.70
2019-03-25T06:28:58.544Z,93.70
2019-03-25T06:31:25.384Z,93.10
2019-03-25T06:33:52.173Z,92.50
2019-03-25T06:36:18.989Z,92.60
2019-03-25T06:38:45.778Z,92.90
2019-03-25T06:41:12.617Z,92.80
2019-03-25T06:43:39.399Z,92.00
2019-03-25T06:46:06.250Z,91.50
2019-03-25T06:48:33.033Z,90.50
2019-03-25T06:50:59.865Z,90.40
2019-03-25T06:53:26.688Z,89.60
2019-03-25T06:55:53.477Z,88.60
2019-03-25T06:58:20.316Z,88.10
2019-03-25T07:00:47.104Z,88.90
2019-03-25T07:03:13.957Z,88.90
2019-03-25T07:05:40.732Z,88.10
2019-03-25T07:08:07.573Z,87.00
2019-03-25T07:10:35.674Z,87.00
2019-03-25T07:13:02.805Z,85.60
2019-03-25T07:15:29.694Z,86.00
2019-03-25T07:17:56.534Z,85.20
2019-03-25T07:20:23.316Z,84.30
2019-03-25T07:22:50.158Z,83.80
2019-03-25T07:25:16.997Z,84.00
2019-03-25T07:27:43.835Z,84.90
2019-03-25T07:30:11.716Z,83.50
2019-03-25T07:32:38.585Z,84.30
2019-03-25T07:35:06.125Z,83.50
2019-03-25T07:37:32.957Z,84.10
2019-03-25T07:39:59.794Z,83.20
2019-03-25T07:42:26.573Z,83.50
2019-03-25T07:44:53.436Z,82.40
2019-03-25T07:47:20.214Z,81.30
2019-03-25T07:49:47.001Z,81.50
2019-03-25T07:52:13.840Z,82.10
2019-03-25T07:54:40.629Z,80.50
2019-03-25T07:57:07.468Z,80.00
2019-03-25T07:59:34.280Z,79.90
2019-03-25T08:02:01.051Z,79.30
2019-03-25T08:04:27.896Z,79.80
2019-03-25T08:06:54.787Z,78.90
2019-03-25T08:09:21.568Z,77.80
2019-03-25T08:11:48.433Z,78.20
2019-03-25T08:14:15.202Z,78.10
2019-03-25T08:16:41.988Z,77.60
2019-03-25T08:19:08.826Z,77.40
2019-03-25T08:21:35.620Z,77.60
2019-03-25T08:24:02.455Z,77.70
2019-03-25T08:26:29.236Z,77.40
2019-03-25T08:28:56.081Z,77.40
2019-03-25T08:31:22.904Z,76.50
2019-03-25T08:33:49.842Z,76.70
2019-03-25T08:36:16.681Z,75.40
2019-03-25T08:38:43.477Z,76.50
2019-03-25T08:41:10.256Z,76.00
2019-03-25T08:43:37.109Z,75.90
2019-03-25T08:46:03.873Z,73.90
2019-03-25T08:48:30.725Z,73.20
2019-03-25T08:50:57.562Z,72.80
2019-03-25T08:53:24.401Z,74.70
2019-03-25T08:55:51.181Z,74.20
2019-03-25T08:58:18.024Z,73.60
2019-03-25T09:00:44.845Z,73.90
2019-03-25T09:03:11.621Z,74.20
2019-03-25T09:05:38.461Z,74.70
2019-03-25T09:08:05.253Z,73.00
2019-03-25T09:10:32.080Z,72.60
2019-03-25T09:12:58.913Z,73.00
2019-03-25T09:15:25.697Z,72.90
2019-03-25T09:17:52.627Z,73.40
2019-03-25T09:20:19.447Z,72.90
2019-03-25T09:22:46.688Z,72.40
2019-03-25T09:25:13.465Z,72.60
2019-03-25T09:27:40.297Z,73.40
2019-03-25T09:30:08.389Z,73.40
2019-03-25T09:32:35.228Z,72.20
2019-03-25T09:35:02.457Z,72.10
2019-03-25T09:37:29.290Z,72.40
2019-03-25T09:39:56.068Z,71.80
2019-03-25T09:42:22.900Z,71.30
2019-03-25T09:44:49.728Z,71.70
2019-03-25T09:47:16.565Z,71.20
2019-03-25T09:49:43.409Z,71.50
2019-03-25T09:52:10.251Z,72.10
2019-03-25T09:54:37.032Z,71.30
2019-03-25T09:57:03.912Z,70.90
2019-03-25T09:59:30.741Z,71.20
2019-03-25T10:01:57.578Z,70.70
2019-03-25T10:04:24.356Z,71.30
2019-03-25T10:06:51.196Z,71.70
2019-03-25T10:09:17.980Z,70.00
2019-03-25T10:11:44.813Z,68.50
2019-03-25T10:14:11.591Z,67.10
2019-03-25T10:16:38.426Z,66.00
2019-03-25T10:19:05.249Z,68.00
2019-03-25T10:21:32.445Z,66.80
2019-03-25T10:23:59.341Z,67.10
2019-03-25T10:26:26.114Z,65.60
2019-03-25T10:28:52.902Z,65.20
2019-03-25T10:31:19.744Z,63.40
2019-03-25T10:33:46.581Z,63.40
2019-03-25T10:36:13.377Z,63.90
2019-03-25T10:38:40.224Z,64.00
2019-03-25T10:41:07.061Z,62.60
2019-03-25T10:43:33.838Z,62.80
2019-03-25T10:46:00.677Z,62.40
2019-03-25T10:48:27.460Z,62.10
2019-03-25T10:50:54.292Z,62.40
2019-03-25T10:53:21.185Z,61.70
2019-03-25T10:55:48.024Z,62.40
2019-03-25T10:58:14.802Z,62.50
2019-03-25T11:00:41.741Z,62.80
2019-03-25T11:03:08.520Z,60.80
2019-03-25T11:05:35.352Z,61.20
2019-03-25T11:08:02.185Z,61.70
2019-03-25T11:10:28.977Z,60.70
2019-03-25T11:12:55.828Z,60.00
2019-03-25T11:15:22.604Z,60.40
2019-03-25T11:17:49.433Z,60.40
2019-03-25T11:20:17.300Z,62.80
2019-03-25T11:22:44.109Z,60.70
2019-03-25T11:25:11.288Z,60.10
2019-03-25T11:27:38.080Z,59.80
2019-03-25T11:30:07.512Z,60.40
2019-03-25T11:32:34.341Z,59.30
2019-03-25T11:35:01.223Z,58.40
2019-03-25T11:37:28.029Z,57.40
2019-03-25T11:39:55.522Z,58.90
2019-03-25T11:42:22.352Z,60.60
2019-03-25T11:44:49.193Z,60.10
2019-03-25T11:47:15.976Z,58.50
2019-03-25T11:49:44.496Z,58.60
2019-03-25T11:52:11.501Z,59.00
2019-03-25T11:54:38.337Z,59.90
2019-03-25T11:57:05.121Z,57.90
2019-03-25T11:59:31.964Z,56.40
2019-03-25T12:01:59.492Z,57.60
2019-03-25T12:04:26.336Z,58.20
2019-03-25T12:06:53.136Z,56.10
2019-03-25T12:09:20.026Z,56.00
2019-03-25T12:11:46.800Z,56.30
2019-03-25T12:14:13.698Z,58.00
2019-03-25T12:16:40.479Z,56.70
2019-03-25T12:19:07.317Z,57.10
2019-03-25T12:21:34.092Z,57.90
2019-03-25T12:24:00.939Z,58.20
2019-03-25T12:26:27.712Z,57.60
2019-03-25T12:28:54.539Z,58.60
2019-03-25T12:31:21.384Z,58.50
2019-03-25T12:33:48.163Z,57.80
2019-03-25T12:36:14.989Z,57.90
2019-03-25T12:38:41.925Z,59.30
2019-03-25T12:41:08.764Z,59.50
2019-03-25T12:43:36.393Z,58.80
2019-03-25T12:46:03.280Z,59.10
2019-03-25T12:48:30.104Z,58.80
2019-03-25T12:50:57.432Z,57.60
2019-03-25T12:53:24.273Z,57.90
2019-03-25T12:55:51.056Z,59.60
2019-03-25T12:58:17.904Z,57.40
2019-03-25T13:00:45.184Z,59.30
2019-03-25T13:03:12.048Z,60.00
2019-03-25T13:05:38.874Z,59.90
2019-03-25T13:08:05.748Z,58.80
2019-03-25T13:10:32.539Z,59.70
2019-03-25T13:12:59.472Z,60.80
2019-03-25T13:15:26.260Z,61.40
2019-03-25T13:17:53.092Z,62.80
2019-03-25T13:20:22.707Z,62.90
2019-03-25T13:22:49.224Z,62.90
2019-03-25T13:25:16.058Z,64.20
2019-03-25T13:27:42.850Z,65.30
2019-03-25T13:30:10.989Z,68.90
2019-03-25T13:32:37.769Z,73.20
2019-03-25T13:35:05.196Z,75.20
2019-03-25T13:37:31.996Z,77.10
2019-03-25T13:39:58.828Z,77.50
2019-03-25T13:42:25.664Z,78.00
2019-03-25T13:44:55.488Z,77.10
2019-03-25T13:47:21.141Z,75.50
2019-03-25T13:49:47.952Z,74.20
2019-03-25T13:52:14.741Z,73.80
2019-03-25T13:54:41.635Z,72.40
2019-03-25T13:57:08.428Z,71.30
2019-03-25T13:59:35.256Z,71.30
2019-03-25T14:02:02.040Z,68.40
2019-03-25T14:04:28.868Z,69.30
2019-03-25T14:06:55.716Z,68.80
2019-03-25T14:09:22.600Z,69.10
2019-03-25T14:11:49.385Z,69.20
2019-03-25T14:14:16.208Z,69.40
2019-03-25T14:16:43.052Z,67.50
2019-03-25T14:19:09.832Z,67.70
2019-03-25T14:21:36.668Z,67.70
2019-03-25T14:24:04.105Z,67.90
2019-03-25T14:26:30.888Z,69.00
2019-03-25T14:28:57.721Z,74.50
2019-03-25T14:31:24.553Z,78.20
2019-03-25T14:33:51.424Z,80.80
2019-03-25T14:36:18.210Z,85.90
2019-03-25T14:38:45.041Z,90.00
2019-03-25T14:41:11.822Z,92.80
2019-03-25T14:43:38.596Z,94.40
2019-03-25T14:46:05.445Z,95.90
2019-03-25T14:48:32.224Z,97.30
2019-03-25T14:50:59.053Z,98.50
2019-03-25T14:53:25.845Z,98.50
2019-03-25T14:55:52.693Z,98.50
2019-03-25T14:58:19.469Z,98.50
2019-03-25T15:00:46.309Z,98.50
2019-03-25T15:03:13.097Z,98.50
2019-03-25T15:05:39.936Z,98.50
2019-03-25T15:08:06.943Z,98.50
2019-03-25T15:10:34.048Z,98.50
2019-03-25T15:13:01.038Z,98.50
2019-03-25T15:15:28.083Z,98.50
2019-03-25T15:17:54.892Z,98.50
2019-03-25T15:20:21.725Z,98.50
2019-03-25T15:22:48.604Z,98.50
2019-03-25T15:25:15.385Z,98.50
2019-03-25T15:27:42.228Z,98.50
2019-03-25T15:30:09.653Z,98.50
2019-03-25T15:32:36.500Z,98.50
2019-03-25T15:35:06.445Z,98.50
2019-03-25T15:37:33.380Z,98.50
2019-03-25T15:40:00.261Z,98.50
2019-03-25T15:42:27.095Z,98.50
2019-03-25T15:44:53.921Z,98.50
2019-03-25T15:47:20.740Z,98.50
2019-03-25T15:49:47.628Z,98.50
2019-03-25T15:52:14.416Z,98.50
2019-03-25T15:54:41.240Z,98.50
2019-03-25T15:57:08.044Z,98.50
2019-03-25T15:59:34.878Z,98.50
2019-03-25T16:02:01.720Z,93.70
2019-03-25T16:04:28.607Z,90.20
2019-03-25T16:06:55.408Z,88.10
2019-03-25T16:09:22.336Z,86.40
2019-03-25T16:11:49.170Z,84.90
2019-03-25T16:14:15.961Z,84.30
2019-03-25T16:16:42.744Z,85.80
2019-03-25T16:19:09.576Z,84.00
2019-03-25T16:21:36.356Z,84.00
2019-03-25T16:24:03.260Z,83.30
2019-03-25T16:26:30.044Z,82.90
2019-03-25T16:28:56.887Z,83.80
2019-03-25T16:31:23.669Z,85.60
2019-03-25T16:33:50.519Z,86.40
2019-03-25T16:36:17.352Z,86.60
2019-03-25T16:38:44.209Z,86.10
2019-03-25T16:41:11.042Z,85.70
2019-03-25T16:43:37.818Z,86.40
2019-03-25T16:46:04.656Z,85.90
2019-03-25T16:48:31.441Z,87.00
2019-03-25T16:50:58.272Z,87.60
2019-03-25T16:53:25.112Z,87.90
2019-03-25T16:55:51.900Z,88.80
2019-03-25T16:58:18.724Z,87.90
2019-03-25T17:00:45.504Z,88.00
2019-03-25T17:03:12.348Z,86.60
2019-03-25T17:05:39.152Z,86.70
2019-03-25T17:08:06.005Z,89.00
2019-03-25T17:10:32.798Z,94.60
2019-03-25T17:12:59.616Z,98.30
2019-03-25T17:15:26.446Z,98.50
2019-03-25T17:17:53.233Z,98.50
2019-03-25T17:20:20.157Z,98.50
2019-03-25T17:22:47.001Z,98.50
2019-03-25T17:25:13.889Z,98.50
2019-03-25T17:27:40.747Z,98.50
2019-03-25T17:30:13.121Z,98.50
2019-03-25T17:32:39.958Z,98.50
2019-03-25T17:35:06.800Z,98.50
2019-03-25T17:37:33.648Z,98.50
2019-03-25T17:40:00.459Z,98.50
2019-03-25T17:42:27.240Z,98.50
2019-03-25T17:44:54.076Z,98.50
2019-03-25T17:47:20.876Z,98.50
2019-03-25T17:49:47.705Z,98.50
2019-03-25T17:52:14.633Z,98.50
2019-03-25T17:54:41.466Z,98.50
2019-03-25T17:57:08.305Z,98.50
2019-03-25T17:59:35.112Z,98.50
2019-03-25T18:02:01.993Z,98.50
2019-03-25T18:04:28.779Z,98.50
2019-03-25T18:06:56.215Z,98.50
2019-03-25T18:09:23.056Z,98.50
2019-03-25T18:11:49.893Z,98.50
2019-03-25T18:14:16.685Z,98.50
2019-03-25T18:16:43.980Z,98.50
2019-03-25T18:19:10.736Z,98.50
2019-03-25T18:21:37.584Z,98.50
2019-03-25T18:24:04.367Z,98.50
2019-03-25T18:26:31.204Z,98.50
2019-03-25T18:28:57.989Z,98.50
2019-03-25T18:31:24.929Z,98.50
2019-03-25T18:33:51.730Z,98.50
2019-03-25T18:36:18.564Z,98.50
2019-03-25T18:38:45.400Z,98.50
2019-03-25T18:41:12.237Z,98.50
2019-03-25T18:43:39.089Z,98.50
2019-03-25T18:46:05.997Z,98.50
2019-03-25T18:48:33.267Z,98.50
2019-03-25T18:51:00.137Z,98.50
2019-03-25T18:53:27.082Z,98.50
2019-03-25T18:55:54.019Z,98.50
2019-03-25T18:58:20.850Z,98.50
2019-03-25T19:00:47.775Z,98.50
2019-03-25T19:03:14.820Z,98.50
2019-03-25T19:05:41.780Z,98.50
2019-03-25T19:08:08.825Z,98.50
2019-03-25T19:10:35.760Z,98.50
2019-03-25T19:13:02.703Z,98.50
2019-03-25T19:15:29.746Z,98.50
2019-03-25T19:17:56.705Z,98.50
2019-03-25T19:20:23.657Z,98.50
2019-03-25T19:22:50.606Z,98.50
2019-03-25T19:25:17.549Z,98.50
2019-03-25T19:27:44.401Z,98.50
2019-03-25T19:30:13.601Z,98.50
2019-03-25T19:32:40.465Z,98.50
2019-03-25T19:35:07.527Z,98.50
2019-03-25T19:37:34.393Z,98.50
2019-03-25T19:40:01.287Z,98.50
2019-03-25T19:42:28.135Z,98.50
2019-03-25T19:44:54.918Z,98.50
2019-03-25T19:47:21.761Z,98.50
2019-03-25T19:49:48.656Z,98.50
2019-03-25T19:52:15.423Z,98.50
2019-03-25T19:54:42.348Z,98.50
2019-03-25T19:57:09.230Z,98.50
2019-03-25T19:59:36.277Z,98.50
2019-03-25T20:02:03.340Z,98.50
2019-03-25T20:04:30.371Z,98.50
2019-03-25T20:06:57.324Z,98.50
2019-03-25T20:09:24.360Z,98.50
2019-03-25T20:11:52.129Z,98.50
2019-03-25T20:14:21.015Z,98.50
2019-03-25T20:16:47.958Z,98.50
2019-03-25T20:19:16.746Z,98.50
2019-03-25T20:21:43.690Z,98.50
2019-03-25T20:24:10.607Z,98.50
2019-03-25T20:26:37.450Z,98.50
2019-03-25T20:29:06.501Z,98.50
2019-03-25T20:31:33.023Z,98.50
2019-03-25T20:34:10.354Z,98.50
2019-03-25T20:36:28.783Z,98.50
2019-03-25T20:38:57.186Z,98.50
2019-03-25T20:41:25.395Z,98.50
2019-03-25T20:43:52.333Z,98.50
2019-03-25T20:46:19.441Z,98.50
2019-03-25T20:48:46.634Z,98.50
2019-03-25T20:51:13.575Z,98.50
2019-03-25T20:53:40.669Z,98.50
2019-03-25T20:56:07.597Z,98.50
2019-03-25T20:58:34.612Z,98.50
2019-03-25T21:01:01.613Z,98.50
2019-03-25T21:03:28.636Z,98.50
2019-03-25T21:05:55.660Z,98.50
2019-03-25T21:08:22.799Z,98.50
2019-03-25T21:10:49.926Z,98.50
2019-03-25T21:13:16.996Z,98.50
2019-03-25T21:15:44.053Z,98.50
2019-03-25T21:18:11.194Z,98.50
2019-03-25T21:20:38.273Z,98.50
2019-03-25T21:23:05.199Z,98.50
2019-03-25T21:25:32.420Z,98.50
2019-03-25T21:27:59.297Z,98.50
2019-03-25T21:30:28.309Z,98.50
2019-03-25T21:32:58.639Z,98.50
2019-03-25T21:35:23.749Z,98.50
2019-03-25T21:37:50.849Z,98.50
2019-03-25T21:40:17.897Z,98.50
2019-03-25T21:42:44.831Z,98.50
2019-03-25T21:45:11.986Z,98.50
2019-03-25T21:47:39.037Z,98.50
2019-03-25T21:50:06.690Z,98.50
2019-03-25T21:52:33.800Z,98.50
2019-03-25T21:55:00.884Z,98.50
2019-03-25T21:57:27.828Z,98.50
2019-03-25T21:59:54.874Z,98.50
2019-03-25T22:02:21.819Z,98.50
2019-03-25T22:04:48.763Z,98.50
2019-03-25T22:07:15.810Z,98.50
2019-03-25T22:09:42.858Z,98.50
2019-03-25T22:12:09.905Z,98.50
2019-03-25T22:14:36.949Z,98.50
2019-03-25T22:17:04.098Z,98.50
2019-03-25T22:19:31.146Z,98.50
2019-03-25T22:21:58.192Z,98.50
2019-03-25T22:24:25.151Z,98.50
2019-03-25T22:26:52.183Z,98.50
2019-03-25T22:29:19.229Z,98.50
2019-03-25T22:31:46.174Z,98.50
2019-03-25T22:34:13.120Z,98.50
2019-03-25T22:36:40.165Z,98.50
2019-03-25T22:39:07.313Z,98.50
2019-03-25T22:41:35.177Z,98.50
2019-03-25T22:44:02.228Z,98.50
2019-03-25T22:46:29.171Z,98.50
2019-03-25T22:48:56.153Z,98.50
2019-03-25T22:51:23.469Z,98.50
2019-03-25T22:53:50.515Z,98.50
2019-03-25T22:56:17.564Z,98.50
2019-03-25T22:58:44.507Z,98.50
2019-03-25T23:01:11.658Z,98.50
2019-03-25T23:03:39.752Z,98.50
2019-03-25T23:06:06.773Z,98.50
2019-03-25T23:08:33.716Z,98.50
2019-03-25T23:11:00.661Z,98.50
2019-03-25T23:13:27.707Z,98.50
2019-03-25T23:15:54.651Z,98.50
2019-03-25T23:18:21.699Z,98.50
2019-03-25T23:20:48.642Z,98.50
2019-03-25T23:23:15.689Z,98.50
2019-03-25T23:25:42.736Z,98.50
2019-03-25T23:28:09.782Z,98.50
2019-03-25T23:30:36.727Z,98.50
2019-03-25T23:33:03.674Z,98.50
2019-03-25T23:35:30.615Z,98.50
2019-03-25T23:37:57.663Z,98.50
2019-03-25T23:40:24.708Z,98.50
2019-03-25T23:42:51.653Z,98.50
2019-03-25T23:45:18.802Z,98.50
2019-03-25T23:47:45.748Z,98.50
2019-03-25T23:50:12.690Z,98.50
2019-03-25T23:52:39.737Z,98.50
2019-03-25T23:55:06.886Z,98.50
2019-03-25T23:57:33.933Z,98.50
